sensor_id;sensor_type;location;lat;lon;timestamp;temperature;humidity
27741;DHT22;15134;48.768;9.184;2023-08-12T00:00:23;22.30;99.90
27741;DHT22;15134;48.768;9.184;2023-08-12T00:02:49;22.30;99.90
27741;DHT22;15134;48.768;9.184;2023-08-12T00:05:15;22.40;99.90
27741;DHT22;15134;48.768;9.184;2023-08-12T00:07:42;22.40;99.90
27741;DHT22;15134;48.768;9.184;2023-08-12T00:10:12;22.40;99.90
27741;DHT22;15134;48.768;9.184;2023-08-12T00:12:39;22.40;99.90
27741;DHT22;15134;48.768;9.184;2023-08-12T00:15:06;22.30;99.90
27741;DHT22;15134;48.768;9.184;2023-08-12T00:17:33;22.30;99.90
27741;DHT22;15134;48.768;9.184;2023-08-12T00:20:00;22.30;99.90
27741;DHT22;15134;48.768;9.184;2023-08-12T00:22:26;22.40;99.90
27741;DHT22;15134;48.768;9.184;2023-08-12T00:24:55;22.30;99.90
27741;DHT22;15134;48.768;9.184;2023-08-12T00:27:20;22.20;99.90
27741;DHT22;15134;48.768;9.184;2023-08-12T00:29:47;22.10;99.90
27741;DHT22;15134;48.768;9.184;2023-08-12T00:32:13;22.10;99.90
27741;DHT22;15134;48.768;9.184;2023-08-12T00:34:39;22.10;99.90
27741;DHT22;15134;48.768;9.184;2023-08-12T00:37:05;22.10;99.90
27741;DHT22;15134;48.768;9.184;2023-08-12T00:39:30;22.20;99.90
27741;DHT22;15134;48.768;9.184;2023-08-12T00:41:56;22.10;99.90
27741;DHT22;15134;48.768;9.184;2023-08-12T00:44:22;22.10;99.90
27741;DHT22;15134;48.768;9.184;2023-08-12T00:46:48;22.10;99.90
27741;DHT22;15134;48.768;9.184;2023-08-12T00:49:15;22.00;99.90
27741;DHT22;15134;48.768;9.184;2023-08-12T00:51:42;22.00;99.90
27741;DHT22;15134;48.768;9.184;2023-08-12T00:54:18;22.00;99.90
27741;DHT22;15134;48.768;9.184;2023-08-12T00:56:50;21.90;99.90
27741;DHT22;15134;48.768;9.184;2023-08-12T00:59:22;21.90;99.90
27741;DHT22;15134;48.768;9.184;2023-08-12T01:01:50;21.90;99.90
27741;DHT22;15134;48.768;9.184;2023-08-12T01:04:20;21.90;99.90
27741;DHT22;15134;48.768;9.184;2023-08-12T01:06:49;21.90;99.90
27741;DHT22;15134;48.768;9.184;2023-08-12T01:09:15;21.80;99.90
27741;DHT22;15134;48.768;9.184;2023-08-12T01:12:12;21.70;99.90
27741;DHT22;15134;48.768;9.184;2023-08-12T01:15:08;21.80;99.90
27741;DHT22;15134;48.768;9.184;2023-08-12T01:17:41;21.80;99.90
27741;DHT22;15134;48.768;9.184;2023-08-12T01:20:11;21.80;99.90
27741;DHT22;15134;48.768;9.184;2023-08-12T01:22:41;21.80;99.90
27741;DHT22;15134;48.768;9.184;2023-08-12T01:25:10;21.80;99.90
27741;DHT22;15134;48.768;9.184;2023-08-12T01:27:36;21.80;99.90
27741;DHT22;15134;48.768;9.184;2023-08-12T01:30:03;21.80;99.90
27741;DHT22;15134;48.768;9.184;2023-08-12T01:32:51;21.80;99.90
27741;DHT22;15134;48.768;9.184;2023-08-12T01:35:36;21.80;99.90
27741;DHT22;15134;48.768;9.184;2023-08-12T01:38:06;21.80;99.90
27741;DHT22;15134;48.768;9.184;2023-08-12T01:40:33;21.80;99.90
27741;DHT22;15134;48.768;9.184;2023-08-12T01:43:07;21.80;99.90
27741;DHT22;15134;48.768;9.184;2023-08-12T01:45:35;21.70;99.90
27741;DHT22;15134;48.768;9.184;2023-08-12T01:48:01;21.60;99.90
27741;DHT22;15134;48.768;9.184;2023-08-12T01:50:27;21.60;99.90
27741;DHT22;15134;48.768;9.184;2023-08-12T01:52:53;21.50;99.90
27741;DHT22;15134;48.768;9.184;2023-08-12T01:55:18;21.60;99.90
27741;DHT22;15134;48.768;9.184;2023-08-12T01:57:49;21.60;99.90
27741;DHT22;15134;48.768;9.184;2023-08-12T02:00:21;21.60;99.90
27741;DHT22;15134;48.768;9.184;2023-08-12T02:02:47;21.60;99.90
27741;DHT22;15134;48.768;9.184;2023-08-12T02:05:13;21.60;99.90
27741;DHT22;15134;48.768;9.184;2023-08-12T02:07:39;21.60;99.90
27741;DHT22;15134;48.768;9.184;2023-08-12T02:10:06;21.70;99.90
27741;DHT22;15134;48.768;9.184;2023-08-12T02:12:32;21.70;99.90
27741;DHT22;15134;48.768;9.184;2023-08-12T02:14:58;21.70;99.90
27741;DHT22;15134;48.768;9.184;2023-08-12T02:17:23;21.50;99.90
27741;DHT22;15134;48.768;9.184;2023-08-12T02:19:51;21.40;99.90
27741;DHT22;15134;48.768;9.184;2023-08-12T02:22:17;21.40;99.90
27741;DHT22;15134;48.768;9.184;2023-08-12T02:24:42;21.40;99.90
27741;DHT22;15134;48.768;9.184;2023-08-12T02:27:08;21.40;99.90
27741;DHT22;15134;48.768;9.184;2023-08-12T02:29:34;21.50;99.90
27741;DHT22;15134;48.768;9.184;2023-08-12T02:32:00;21.50;99.90
27741;DHT22;15134;48.768;9.184;2023-08-12T02:34:25;21.50;99.90
27741;DHT22;15134;48.768;9.184;2023-08-12T02:36:51;21.60;99.90
27741;DHT22;15134;48.768;9.184;2023-08-12T02:39:17;21.60;99.90
27741;DHT22;15134;48.768;9.184;2023-08-12T02:41:43;21.60;99.90
27741;DHT22;15134;48.768;9.184;2023-08-12T02:44:08;21.60;99.90
27741;DHT22;15134;48.768;9.184;2023-08-12T02:46:34;21.60;99.90
27741;DHT22;15134;48.768;9.184;2023-08-12T02:49:02;21.60;99.90
27741;DHT22;15134;48.768;9.184;2023-08-12T02:51:30;21.70;99.90
27741;DHT22;15134;48.768;9.184;2023-08-12T02:53:55;21.70;99.90
27741;DHT22;15134;48.768;9.184;2023-08-12T02:56:21;21.70;99.90
27741;DHT22;15134;48.768;9.184;2023-08-12T02:58:47;21.60;99.90
27741;DHT22;15134;48.768;9.184;2023-08-12T03:01:13;21.70;99.90
27741;DHT22;15134;48.768;9.184;2023-08-12T03:03:39;21.70;99.90
27741;DHT22;15134;48.768;9.184;2023-08-12T03:06:05;21.70;99.90
27741;DHT22;15134;48.768;9.184;2023-08-12T03:08:31;21.70;99.90
27741;DHT22;15134;48.768;9.184;2023-08-12T03:11:01;21.70;99.90
27741;DHT22;15134;48.768;9.184;2023-08-12T03:13:28;21.70;99.90
27741;DHT22;15134;48.768;9.184;2023-08-12T03:15:54;21.70;99.90
27741;DHT22;15134;48.768;9.184;2023-08-12T03:18:20;21.60;99.90
27741;DHT22;15134;48.768;9.184;2023-08-12T03:20:46;21.60;99.90
27741;DHT22;15134;48.768;9.184;2023-08-12T03:23:13;21.50;99.90
27741;DHT22;15134;48.768;9.184;2023-08-12T03:25:39;21.50;99.90
27741;DHT22;15134;48.768;9.184;2023-08-12T03:28:05;21.40;99.90
27741;DHT22;15134;48.768;9.184;2023-08-12T03:30:32;21.40;99.90
27741;DHT22;15134;48.768;9.184;2023-08-12T03:32:58;21.30;99.90
27741;DHT22;15134;48.768;9.184;2023-08-12T03:35:26;21.40;99.90
27741;DHT22;15134;48.768;9.184;2023-08-12T03:37:52;21.50;99.90
27741;DHT22;15134;48.768;9.184;2023-08-12T03:40:19;21.60;99.90
27741;DHT22;15134;48.768;9.184;2023-08-12T03:42:47;21.60;99.90
27741;DHT22;15134;48.768;9.184;2023-08-12T03:45:15;21.50;99.90
27741;DHT22;15134;48.768;9.184;2023-08-12T03:47:41;21.40;99.90
27741;DHT22;15134;48.768;9.184;2023-08-12T03:50:07;21.40;99.90
27741;DHT22;15134;48.768;9.184;2023-08-12T03:52:33;21.50;99.90
27741;DHT22;15134;48.768;9.184;2023-08-12T03:54:58;21.50;99.90
27741;DHT22;15134;48.768;9.184;2023-08-12T03:57:25;21.60;99.90
27741;DHT22;15134;48.768;9.184;2023-08-12T03:59:51;21.60;99.90
27741;DHT22;15134;48.768;9.184;2023-08-12T04:02:17;21.60;99.90
27741;DHT22;15134;48.768;9.184;2023-08-12T04:04:43;21.60;99.90
27741;DHT22;15134;48.768;9.184;2023-08-12T04:07:11;21.50;99.90
27741;DHT22;15134;48.768;9.184;2023-08-12T04:09:36;21.60;99.90
27741;DHT22;15134;48.768;9.184;2023-08-12T04:12:02;21.60;99.90
27741;DHT22;15134;48.768;9.184;2023-08-12T04:14:31;21.60;99.90
27741;DHT22;15134;48.768;9.184;2023-08-12T04:16:57;21.60;99.90
27741;DHT22;15134;48.768;9.184;2023-08-12T04:19:22;21.60;99.90
27741;DHT22;15134;48.768;9.184;2023-08-12T04:21:48;21.60;99.90
27741;DHT22;15134;48.768;9.184;2023-08-12T04:24:14;21.60;99.90
27741;DHT22;15134;48.768;9.184;2023-08-12T04:26:39;21.70;99.90
27741;DHT22;15134;48.768;9.184;2023-08-12T04:29:06;21.70;99.90
27741;DHT22;15134;48.768;9.184;2023-08-12T04:31:34;21.60;99.90
27741;DHT22;15134;48.768;9.184;2023-08-12T04:34:01;21.70;99.90
27741;DHT22;15134;48.768;9.184;2023-08-12T04:36:27;21.60;99.90
27741;DHT22;15134;48.768;9.184;2023-08-12T04:38:54;21.70;99.90
27741;DHT22;15134;48.768;9.184;2023-08-12T04:41:20;21.70;99.90
27741;DHT22;15134;48.768;9.184;2023-08-12T04:43:49;21.60;99.90
27741;DHT22;15134;48.768;9.184;2023-08-12T04:46:15;21.60;99.90
27741;DHT22;15134;48.768;9.184;2023-08-12T04:48:42;21.60;99.90
27741;DHT22;15134;48.768;9.184;2023-08-12T04:51:07;21.60;99.90
27741;DHT22;15134;48.768;9.184;2023-08-12T04:53:33;21.60;99.90
27741;DHT22;15134;48.768;9.184;2023-08-12T04:55:59;21.60;99.90
27741;DHT22;15134;48.768;9.184;2023-08-12T04:58:26;21.60;99.90
27741;DHT22;15134;48.768;9.184;2023-08-12T05:00:52;21.50;99.90
27741;DHT22;15134;48.768;9.184;2023-08-12T05:03:19;21.50;99.90
27741;DHT22;15134;48.768;9.184;2023-08-12T05:05:50;21.60;99.90
27741;DHT22;15134;48.768;9.184;2023-08-12T05:08:16;21.60;99.90
27741;DHT22;15134;48.768;9.184;2023-08-12T05:10:42;21.70;99.90
27741;DHT22;15134;48.768;9.184;2023-08-12T05:13:09;21.70;99.90
27741;DHT22;15134;48.768;9.184;2023-08-12T05:15:35;21.80;99.90
27741;DHT22;15134;48.768;9.184;2023-08-12T05:18:03;21.80;99.90
27741;DHT22;15134;48.768;9.184;2023-08-12T05:20:29;21.80;99.90
27741;DHT22;15134;48.768;9.184;2023-08-12T05:22:56;21.80;99.90
27741;DHT22;15134;48.768;9.184;2023-08-12T05:25:22;21.80;99.90
27741;DHT22;15134;48.768;9.184;2023-08-12T05:27:48;21.90;99.90
27741;DHT22;15134;48.768;9.184;2023-08-12T05:30:13;21.90;99.90
27741;DHT22;15134;48.768;9.184;2023-08-12T05:32:39;22.00;99.90
27741;DHT22;15134;48.768;9.184;2023-08-12T05:35:05;22.00;99.90
27741;DHT22;15134;48.768;9.184;2023-08-12T05:37:31;22.10;99.90
27741;DHT22;15134;48.768;9.184;2023-08-12T05:39:56;22.10;99.90
27741;DHT22;15134;48.768;9.184;2023-08-12T05:42:22;22.20;99.90
27741;DHT22;15134;48.768;9.184;2023-08-12T05:44:48;22.10;99.90
27741;DHT22;15134;48.768;9.184;2023-08-12T05:47:16;22.10;99.90
27741;DHT22;15134;48.768;9.184;2023-08-12T05:49:42;22.20;99.90
27741;DHT22;15134;48.768;9.184;2023-08-12T05:52:09;22.20;99.90
27741;DHT22;15134;48.768;9.184;2023-08-12T05:54:37;22.20;99.90
27741;DHT22;15134;48.768;9.184;2023-08-12T05:57:02;22.20;99.90
27741;DHT22;15134;48.768;9.184;2023-08-12T05:59:28;22.30;99.90
27741;DHT22;15134;48.768;9.184;2023-08-12T06:01:54;22.30;99.90
27741;DHT22;15134;48.768;9.184;2023-08-12T06:04:21;22.40;99.90
27741;DHT22;15134;48.768;9.184;2023-08-12T06:06:49;22.40;99.90
27741;DHT22;15134;48.768;9.184;2023-08-12T06:09:15;22.40;99.90
27741;DHT22;15134;48.768;9.184;2023-08-12T06:11:40;22.40;99.90
27741;DHT22;15134;48.768;9.184;2023-08-12T06:14:06;22.40;99.90
27741;DHT22;15134;48.768;9.184;2023-08-12T06:16:32;22.40;99.90
27741;DHT22;15134;48.768;9.184;2023-08-12T06:18:58;22.40;99.90
27741;DHT22;15134;48.768;9.184;2023-08-12T06:21:23;22.40;99.90
27741;DHT22;15134;48.768;9.184;2023-08-12T06:23:49;22.40;99.90
27741;DHT22;15134;48.768;9.184;2023-08-12T06:26:15;22.30;99.90
27741;DHT22;15134;48.768;9.184;2023-08-12T06:28:40;22.30;99.90
27741;DHT22;15134;48.768;9.184;2023-08-12T06:31:08;22.30;99.90
27741;DHT22;15134;48.768;9.184;2023-08-12T06:33:34;22.40;99.90
27741;DHT22;15134;48.768;9.184;2023-08-12T06:36:00;22.50;99.90
27741;DHT22;15134;48.768;9.184;2023-08-12T06:38:25;22.60;99.90
27741;DHT22;15134;48.768;9.184;2023-08-12T06:40:54;22.70;99.90
27741;DHT22;15134;48.768;9.184;2023-08-12T06:43:21;22.90;99.90
27741;DHT22;15134;48.768;9.184;2023-08-12T06:45:47;23.00;99.90
27741;DHT22;15134;48.768;9.184;2023-08-12T06:48:12;23.20;99.90
27741;DHT22;15134;48.768;9.184;2023-08-12T06:50:38;23.50;99.90
27741;DHT22;15134;48.768;9.184;2023-08-12T06:53:09;23.70;99.90
27741;DHT22;15134;48.768;9.184;2023-08-12T06:55:34;24.30;99.90
27741;DHT22;15134;48.768;9.184;2023-08-12T06:58:01;25.20;99.90
27741;DHT22;15134;48.768;9.184;2023-08-12T07:00:26;26.20;99.90
27741;DHT22;15134;48.768;9.184;2023-08-12T07:02:52;27.10;99.90
27741;DHT22;15134;48.768;9.184;2023-08-12T07:05:18;27.30;99.90
27741;DHT22;15134;48.768;9.184;2023-08-12T07:07:44;27.10;99.90
27741;DHT22;15134;48.768;9.184;2023-08-12T07:10:10;26.80;99.90
27741;DHT22;15134;48.768;9.184;2023-08-12T07:12:35;26.70;99.90
27741;DHT22;15134;48.768;9.184;2023-08-12T07:15:08;27.30;99.90
27741;DHT22;15134;48.768;9.184;2023-08-12T07:17:33;28.20;99.90
27741;DHT22;15134;48.768;9.184;2023-08-12T07:19:59;29.00;99.90
27741;DHT22;15134;48.768;9.184;2023-08-12T07:22:25;29.80;99.90
27741;DHT22;15134;48.768;9.184;2023-08-12T07:24:50;30.10;99.90
27741;DHT22;15134;48.768;9.184;2023-08-12T07:27:21;30.10;99.90
27741;DHT22;15134;48.768;9.184;2023-08-12T07:29:46;30.00;99.90
27741;DHT22;15134;48.768;9.184;2023-08-12T07:32:12;30.30;99.90
27741;DHT22;15134;48.768;9.184;2023-08-12T07:34:38;30.80;99.90
27741;DHT22;15134;48.768;9.184;2023-08-12T07:37:04;31.30;99.90
27741;DHT22;15134;48.768;9.184;2023-08-12T07:39:32;31.80;99.90
27741;DHT22;15134;48.768;9.184;2023-08-12T07:41:58;32.30;99.90
27741;DHT22;15134;48.768;9.184;2023-08-12T07:44:25;32.70;99.90
27741;DHT22;15134;48.768;9.184;2023-08-12T07:46:50;33.40;99.90
27741;DHT22;15134;48.768;9.184;2023-08-12T07:49:16;34.40;99.90
27741;DHT22;15134;48.768;9.184;2023-08-12T07:51:42;35.00;99.90
27741;DHT22;15134;48.768;9.184;2023-08-12T07:54:08;35.10;99.90
27741;DHT22;15134;48.768;9.184;2023-08-12T07:56:33;35.40;99.90
27741;DHT22;15134;48.768;9.184;2023-08-12T07:58:59;36.70;99.90
27741;DHT22;15134;48.768;9.184;2023-08-12T08:01:25;37.50;99.90
27741;DHT22;15134;48.768;9.184;2023-08-12T08:03:54;38.30;99.90
27741;DHT22;15134;48.768;9.184;2023-08-12T08:06:23;38.90;99.90
27741;DHT22;15134;48.768;9.184;2023-08-12T08:08:51;39.50;99.90
27741;DHT22;15134;48.768;9.184;2023-08-12T08:11:17;40.30;99.20
27741;DHT22;15134;48.768;9.184;2023-08-12T08:13:43;41.10;96.80
27741;DHT22;15134;48.768;9.184;2023-08-12T08:16:08;41.60;95.90
27741;DHT22;15134;48.768;9.184;2023-08-12T08:18:34;42.10;93.80
27741;DHT22;15134;48.768;9.184;2023-08-12T08:21:00;42.40;92.90
27741;DHT22;15134;48.768;9.184;2023-08-12T08:23:26;42.90;91.80
27741;DHT22;15134;48.768;9.184;2023-08-12T08:25:51;43.60;90.30
27741;DHT22;15134;48.768;9.184;2023-08-12T08:28:17;42.70;90.00
27741;DHT22;15134;48.768;9.184;2023-08-12T08:30:43;40.60;91.20
27741;DHT22;15134;48.768;9.184;2023-08-12T08:33:08;39.80;92.30
27741;DHT22;15134;48.768;9.184;2023-08-12T08:35:34;40.90;92.10
27741;DHT22;15134;48.768;9.184;2023-08-12T08:38:01;42.00;90.80
27741;DHT22;15134;48.768;9.184;2023-08-12T08:40:26;42.90;88.90
27741;DHT22;15134;48.768;9.184;2023-08-12T08:42:53;43.40;86.30
27741;DHT22;15134;48.768;9.184;2023-08-12T08:45:22;42.20;88.00
27741;DHT22;15134;48.768;9.184;2023-08-12T08:47:51;42.60;87.20
27741;DHT22;15134;48.768;9.184;2023-08-12T08:50:17;41.80;87.20
27741;DHT22;15134;48.768;9.184;2023-08-12T08:52:43;40.40;90.20
27741;DHT22;15134;48.768;9.184;2023-08-12T08:55:10;41.10;89.60
27741;DHT22;15134;48.768;9.184;2023-08-12T08:57:37;42.20;88.20
27741;DHT22;15134;48.768;9.184;2023-08-12T09:00:04;43.00;86.90
27741;DHT22;15134;48.768;9.184;2023-08-12T09:02:35;43.70;83.60
27741;DHT22;15134;48.768;9.184;2023-08-12T09:05:02;44.50;83.00
27741;DHT22;15134;48.768;9.184;2023-08-12T09:07:30;44.90;80.70
27741;DHT22;15134;48.768;9.184;2023-08-12T09:09:57;45.30;80.30
27741;DHT22;15134;48.768;9.184;2023-08-12T09:12:24;45.20;78.80
27741;DHT22;15134;48.768;9.184;2023-08-12T09:14:50;45.40;79.20
27741;DHT22;15134;48.768;9.184;2023-08-12T09:17:15;45.50;77.70
27741;DHT22;15134;48.768;9.184;2023-08-12T09:19:42;45.40;76.80
27741;DHT22;15134;48.768;9.184;2023-08-12T09:22:08;44.40;78.10
27741;DHT22;15134;48.768;9.184;2023-08-12T09:24:35;44.80;77.80
27741;DHT22;15134;48.768;9.184;2023-08-12T09:27:01;45.50;76.10
27741;DHT22;15134;48.768;9.184;2023-08-12T09:29:34;46.00;75.20
27741;DHT22;15134;48.768;9.184;2023-08-12T09:32:14;46.20;74.40
27741;DHT22;15134;48.768;9.184;2023-08-12T09:34:53;46.60;73.70
27741;DHT22;15134;48.768;9.184;2023-08-12T09:37:21;46.90;71.60
27741;DHT22;15134;48.768;9.184;2023-08-12T09:39:51;46.30;71.80
27741;DHT22;15134;48.768;9.184;2023-08-12T09:42:18;44.50;71.90
27741;DHT22;15134;48.768;9.184;2023-08-12T09:44:44;42.80;76.10
27741;DHT22;15134;48.768;9.184;2023-08-12T09:47:10;41.60;76.30
27741;DHT22;15134;48.768;9.184;2023-08-12T09:49:37;40.40;76.30
27741;DHT22;15134;48.768;9.184;2023-08-12T09:52:04;39.70;80.10
27741;DHT22;15134;48.768;9.184;2023-08-12T09:54:34;39.20;80.00
27741;DHT22;15134;48.768;9.184;2023-08-12T09:57:02;38.70;79.80
27741;DHT22;15134;48.768;9.184;2023-08-12T09:59:31;38.00;81.00
27741;DHT22;15134;48.768;9.184;2023-08-12T10:02:01;37.20;81.50
27741;DHT22;15134;48.768;9.184;2023-08-12T10:04:41;36.30;85.00
27741;DHT22;15134;48.768;9.184;2023-08-12T10:07:11;35.50;86.20
27741;DHT22;15134;48.768;9.184;2023-08-12T10:09:39;34.70;88.70
27741;DHT22;15134;48.768;9.184;2023-08-12T10:12:06;34.00;91.30
27741;DHT22;15134;48.768;9.184;2023-08-12T10:14:34;33.40;92.80
27741;DHT22;15134;48.768;9.184;2023-08-12T10:17:00;33.00;94.60
27741;DHT22;15134;48.768;9.184;2023-08-12T10:19:27;32.70;94.50
27741;DHT22;15134;48.768;9.184;2023-08-12T10:21:55;32.40;94.30
27741;DHT22;15134;48.768;9.184;2023-08-12T10:24:23;32.00;95.50
27741;DHT22;15134;48.768;9.184;2023-08-12T10:26:51;31.80;96.10
27741;DHT22;15134;48.768;9.184;2023-08-12T10:29:17;31.70;95.90
27741;DHT22;15134;48.768;9.184;2023-08-12T10:31:43;31.60;95.90
27741;DHT22;15134;48.768;9.184;2023-08-12T10:34:21;31.60;97.40
27741;DHT22;15134;48.768;9.184;2023-08-12T10:36:48;31.50;95.50
27741;DHT22;15134;48.768;9.184;2023-08-12T10:39:19;31.60;95.40
27741;DHT22;15134;48.768;9.184;2023-08-12T10:41:50;31.70;96.30
27741;DHT22;15134;48.768;9.184;2023-08-12T10:44:21;31.80;96.80
27741;DHT22;15134;48.768;9.184;2023-08-12T10:46:51;32.00;96.40
27741;DHT22;15134;48.768;9.184;2023-08-12T10:49:19;32.00;95.60
27741;DHT22;15134;48.768;9.184;2023-08-12T10:51:50;31.90;95.90
27741;DHT22;15134;48.768;9.184;2023-08-12T10:54:17;31.70;94.80
27741;DHT22;15134;48.768;9.184;2023-08-12T11:02:31;31.60;96.20
27741;DHT22;15134;48.768;9.184;2023-08-12T11:05:04;31.60;95.90
27741;DHT22;15134;48.768;9.184;2023-08-12T11:07:34;31.80;96.00
27741;DHT22;15134;48.768;9.184;2023-08-12T11:10:21;31.80;95.70
27741;DHT22;15134;48.768;9.184;2023-08-12T11:12:54;31.80;95.20
27741;DHT22;15134;48.768;9.184;2023-08-12T11:15:44;31.60;95.20
27741;DHT22;15134;48.768;9.184;2023-08-12T11:18:17;31.50;95.50
27741;DHT22;15134;48.768;9.184;2023-08-12T11:20:49;31.30;95.50
27741;DHT22;15134;48.768;9.184;2023-08-12T11:23:16;31.40;95.50
27741;DHT22;15134;48.768;9.184;2023-08-12T11:25:43;31.50;95.30
27741;DHT22;15134;48.768;9.184;2023-08-12T11:28:10;31.50;95.60
27741;DHT22;15134;48.768;9.184;2023-08-12T11:30:36;31.40;95.50
27741;DHT22;15134;48.768;9.184;2023-08-12T11:33:02;31.30;95.30
27741;DHT22;15134;48.768;9.184;2023-08-12T11:35:28;31.20;95.30
27741;DHT22;15134;48.768;9.184;2023-08-12T11:37:56;31.20;95.70
27741;DHT22;15134;48.768;9.184;2023-08-12T11:40:26;31.10;96.40
27741;DHT22;15134;48.768;9.184;2023-08-12T11:42:52;31.10;96.50
27741;DHT22;15134;48.768;9.184;2023-08-12T11:45:26;31.00;96.50
27741;DHT22;15134;48.768;9.184;2023-08-12T11:47:53;30.90;96.60
27741;DHT22;15134;48.768;9.184;2023-08-12T11:50:22;30.90;96.90
27741;DHT22;15134;48.768;9.184;2023-08-12T11:52:48;30.90;96.80
27741;DHT22;15134;48.768;9.184;2023-08-12T11:55:15;30.80;97.00
27741;DHT22;15134;48.768;9.184;2023-08-12T11:57:41;30.80;97.20
27741;DHT22;15134;48.768;9.184;2023-08-12T12:00:10;30.80;97.30
27741;DHT22;15134;48.768;9.184;2023-08-12T12:05:13;31.00;97.00
27741;DHT22;15134;48.768;9.184;2023-08-12T12:07:39;30.90;97.30
27741;DHT22;15134;48.768;9.184;2023-08-12T12:10:07;30.90;97.70
27741;DHT22;15134;48.768;9.184;2023-08-12T12:12:36;30.60;97.70
27741;DHT22;15134;48.768;9.184;2023-08-12T12:15:03;30.20;99.90
27741;DHT22;15134;48.768;9.184;2023-08-12T12:17:29;29.50;99.90
27741;DHT22;15134;48.768;9.184;2023-08-12T12:20:00;29.00;99.90
27741;DHT22;15134;48.768;9.184;2023-08-12T12:22:30;28.50;99.90
27741;DHT22;15134;48.768;9.184;2023-08-12T12:25:10;28.10;99.90
27741;DHT22;15134;48.768;9.184;2023-08-12T12:27:37;27.70;99.90
27741;DHT22;15134;48.768;9.184;2023-08-12T12:30:14;27.50;99.90
27741;DHT22;15134;48.768;9.184;2023-08-12T12:32:42;27.20;99.90
27741;DHT22;15134;48.768;9.184;2023-08-12T12:35:10;26.90;99.90
27741;DHT22;15134;48.768;9.184;2023-08-12T12:37:37;26.70;99.90
27741;DHT22;15134;48.768;9.184;2023-08-12T12:40:04;26.70;99.90
27741;DHT22;15134;48.768;9.184;2023-08-12T12:42:30;26.60;99.90
27741;DHT22;15134;48.768;9.184;2023-08-12T12:44:56;26.60;99.90
27741;DHT22;15134;48.768;9.184;2023-08-12T12:47:22;26.50;99.90
27741;DHT22;15134;48.768;9.184;2023-08-12T12:49:54;26.50;99.90
27741;DHT22;15134;48.768;9.184;2023-08-12T12:52:20;26.40;99.90
27741;DHT22;15134;48.768;9.184;2023-08-12T12:54:45;26.20;99.90
27741;DHT22;15134;48.768;9.184;2023-08-12T12:57:11;26.10;99.90
27741;DHT22;15134;48.768;9.184;2023-08-12T12:59:37;26.00;99.90
27741;DHT22;15134;48.768;9.184;2023-08-12T13:02:03;26.00;99.90
27741;DHT22;15134;48.768;9.184;2023-08-12T13:04:28;25.90;99.90
27741;DHT22;15134;48.768;9.184;2023-08-12T13:06:54;25.80;99.90
27741;DHT22;15134;48.768;9.184;2023-08-12T13:09:20;25.70;99.90
27741;DHT22;15134;48.768;9.184;2023-08-12T13:11:46;25.70;99.90
27741;DHT22;15134;48.768;9.184;2023-08-12T13:14:12;25.70;99.90
27741;DHT22;15134;48.768;9.184;2023-08-12T13:16:37;25.70;99.90
27741;DHT22;15134;48.768;9.184;2023-08-12T13:19:03;25.80;99.90
27741;DHT22;15134;48.768;9.184;2023-08-12T13:21:29;25.80;99.90
27741;DHT22;15134;48.768;9.184;2023-08-12T13:23:57;25.80;99.90
27741;DHT22;15134;48.768;9.184;2023-08-12T13:26:23;25.80;99.90
27741;DHT22;15134;48.768;9.184;2023-08-12T13:28:49;25.70;99.90
27741;DHT22;15134;48.768;9.184;2023-08-12T13:31:15;25.70;99.90
27741;DHT22;15134;48.768;9.184;2023-08-12T13:33:42;25.60;99.90
27741;DHT22;15134;48.768;9.184;2023-08-12T13:36:07;25.60;99.90
27741;DHT22;15134;48.768;9.184;2023-08-12T13:38:33;25.60;99.90
27741;DHT22;15134;48.768;9.184;2023-08-12T13:40:59;25.50;99.90
27741;DHT22;15134;48.768;9.184;2023-08-12T13:43:25;25.50;99.90
27741;DHT22;15134;48.768;9.184;2023-08-12T13:45:56;25.50;99.90
27741;DHT22;15134;48.768;9.184;2023-08-12T13:48:22;25.50;99.90
27741;DHT22;15134;48.768;9.184;2023-08-12T13:50:48;25.50;99.90
27741;DHT22;15134;48.768;9.184;2023-08-12T13:53:16;25.60;99.90
27741;DHT22;15134;48.768;9.184;2023-08-12T13:55:41;25.60;99.90
27741;DHT22;15134;48.768;9.184;2023-08-12T13:58:07;25.80;99.90
27741;DHT22;15134;48.768;9.184;2023-08-12T14:00:33;26.00;99.90
27741;DHT22;15134;48.768;9.184;2023-08-12T14:02:58;26.30;99.90
27741;DHT22;15134;48.768;9.184;2023-08-12T14:05:24;26.60;99.90
27741;DHT22;15134;48.768;9.184;2023-08-12T14:07:50;26.70;99.90
27741;DHT22;15134;48.768;9.184;2023-08-12T14:10:16;26.90;99.90
27741;DHT22;15134;48.768;9.184;2023-08-12T14:12:42;27.10;99.90
27741;DHT22;15134;48.768;9.184;2023-08-12T14:15:07;27.10;99.90
27741;DHT22;15134;48.768;9.184;2023-08-12T14:17:34;27.10;99.90
27741;DHT22;15134;48.768;9.184;2023-08-12T14:19:59;27.10;99.90
27741;DHT22;15134;48.768;9.184;2023-08-12T14:22:25;27.10;99.90
27741;DHT22;15134;48.768;9.184;2023-08-12T14:24:51;27.10;99.90
27741;DHT22;15134;48.768;9.184;2023-08-12T14:27:17;27.10;99.90
27741;DHT22;15134;48.768;9.184;2023-08-12T14:29:43;27.10;99.90
27741;DHT22;15134;48.768;9.184;2023-08-12T14:32:09;27.00;99.90
27741;DHT22;15134;48.768;9.184;2023-08-12T14:34:35;26.90;99.90
27741;DHT22;15134;48.768;9.184;2023-08-12T14:37:02;26.90;99.90
27741;DHT22;15134;48.768;9.184;2023-08-12T14:39:28;26.90;99.90
27741;DHT22;15134;48.768;9.184;2023-08-12T14:41:54;26.90;99.90
27741;DHT22;15134;48.768;9.184;2023-08-12T14:44:20;26.90;99.90
27741;DHT22;15134;48.768;9.184;2023-08-12T14:46:45;26.90;99.90
27741;DHT22;15134;48.768;9.184;2023-08-12T14:49:11;26.90;99.90
27741;DHT22;15134;48.768;9.184;2023-08-12T14:51:37;26.80;99.90
27741;DHT22;15134;48.768;9.184;2023-08-12T14:54:03;26.80;99.90
27741;DHT22;15134;48.768;9.184;2023-08-12T14:56:29;26.80;99.90
27741;DHT22;15134;48.768;9.184;2023-08-12T14:58:54;26.80;99.90
27741;DHT22;15134;48.768;9.184;2023-08-12T15:01:21;26.80;99.90
27741;DHT22;15134;48.768;9.184;2023-08-12T15:03:49;26.80;99.90
27741;DHT22;15134;48.768;9.184;2023-08-12T15:06:15;26.80;99.90
27741;DHT22;15134;48.768;9.184;2023-08-12T15:08:42;26.80;99.90
27741;DHT22;15134;48.768;9.184;2023-08-12T15:11:09;26.80;99.90
27741;DHT22;15134;48.768;9.184;2023-08-12T15:13:35;26.80;99.90
27741;DHT22;15134;48.768;9.184;2023-08-12T15:16:01;26.80;99.90
27741;DHT22;15134;48.768;9.184;2023-08-12T15:18:27;26.70;99.90
27741;DHT22;15134;48.768;9.184;2023-08-12T15:20:52;26.80;99.90
27741;DHT22;15134;48.768;9.184;2023-08-12T15:23:19;26.80;99.90
27741;DHT22;15134;48.768;9.184;2023-08-12T15:25:45;26.80;99.90
27741;DHT22;15134;48.768;9.184;2023-08-12T15:28:12;26.70;99.90
27741;DHT22;15134;48.768;9.184;2023-08-12T15:30:39;26.70;99.90
27741;DHT22;15134;48.768;9.184;2023-08-12T15:33:05;26.70;99.90
27741;DHT22;15134;48.768;9.184;2023-08-12T15:35:37;26.60;99.90
27741;DHT22;15134;48.768;9.184;2023-08-12T15:38:05;26.60;99.90